EFSI/SJY METAR and TAF weather

Enter ICAO airport designator
Station Type Date Time Source
EFSI METAR 2018/01/22 11:50 UTC NOAA

EFSI 221150Z AUTO 00000KT 9999 FEW043 BKN070 M13/M14 Q1012


Station Type Date Time Source
EFSI Decoded METAR 2018/01/22 11:50 UTC NOAA

Seinajoki-Ilmajok, Finland (EFSI) 62-41-37N 022-49-55E
Jan 22, 2018 - 06:50 AM EST / 2018.01.22 1150 UTC
Wind: Calm:0
Visibility: greater than 7 mile(s):0
Sky conditions: mostly cloudy
Temperature: 8 F (-13 C)
Dew Point: 6 F (-14 C)
Relative Humidity: 92%
Pressure (altimeter): 29.88 in. Hg (1012 hPa)
ob: EFSI 221150Z AUTO 00000KT 9999 FEW043 BKN070 M13/M14 Q1012
cycle: 12

Station Type Date Time Source
EFSI TAF 2012/03/06 09:42 UTC NOAA

TAF EFSI 060830Z 0609/0621 12003KT CAVOK


Example: see airport list